createdAt,value
2023-10-31T00:01:53.542Z,99635.80
2023-10-31T00:04:23.105Z,99641.45
2023-10-31T00:06:52.982Z,99640.19
2023-10-31T00:09:22.807Z,99641.72
2023-10-31T00:11:52.932Z,99643.63
2023-10-31T00:14:30.122Z,99643.83
2023-10-31T00:16:54.544Z,99652.81
2023-10-31T00:19:24.796Z,99645.11
2023-10-31T00:21:54.612Z,99650.33
2023-10-31T00:24:24.236Z,99663.20
2023-10-31T00:26:54.426Z,99660.06
2023-10-31T00:29:24.271Z,99673.50
2023-10-31T00:31:54.516Z,99665.05
2023-10-31T00:34:24.098Z,99674.83
2023-10-31T00:36:53.909Z,99684.57
2023-10-31T00:39:23.746Z,99684.38
2023-10-31T00:41:53.906Z,99690.25
2023-10-31T00:44:24.072Z,99687.84
2023-10-31T00:46:53.960Z,99692.62
2023-10-31T00:49:23.837Z,99691.77
2023-10-31T00:51:53.977Z,99700.70
2023-10-31T00:54:24.725Z,99700.07
2023-10-31T00:56:54.877Z,99705.03
2023-10-31T00:59:25.014Z,99711.14
2023-10-31T01:01:55.151Z,99708.19
2023-10-31T01:04:26.335Z,99715.67
2023-10-31T01:06:56.182Z,99716.50
2023-10-31T01:09:26.029Z,99718.71
2023-10-31T01:11:56.189Z,99725.88
2023-10-31T01:14:25.723Z,99728.37
2023-10-31T01:16:55.905Z,99733.84
2023-10-31T01:19:25.727Z,99742.69
2023-10-31T01:21:55.756Z,99734.29
2023-10-31T01:24:25.657Z,99743.81
2023-10-31T01:26:55.591Z,99737.64
2023-10-31T01:29:25.733Z,99740.59
2023-10-31T01:31:59.876Z,99740.84
2023-10-31T01:34:27.214Z,99748.87
2023-10-31T01:36:57.070Z,99751.75
2023-10-31T01:39:26.908Z,99747.60
2023-10-31T01:41:56.785Z,99753.12
2023-10-31T01:44:27.118Z,99758.06
2023-10-31T01:46:57.380Z,99757.31
2023-10-31T01:49:27.316Z,99759.84
2023-10-31T01:51:57.324Z,99758.73
2023-10-31T01:54:27.666Z,99762.22
2023-10-31T01:56:59.151Z,99764.52
2023-10-31T01:59:29.781Z,99762.16
2023-10-31T02:02:00.833Z,99767.16
2023-10-31T02:04:32.111Z,99773.39
2023-10-31T02:07:03.275Z,99774.08
2023-10-31T02:09:33.780Z,99780.66
2023-10-31T02:12:05.351Z,99781.44
2023-10-31T02:14:35.187Z,99780.33
2023-10-31T02:17:04.964Z,99774.91
2023-10-31T02:19:34.872Z,99766.71
2023-10-31T02:22:05.299Z,99769.41
2023-10-31T02:24:35.153Z,99762.94
2023-10-31T02:27:05.625Z,99769.44
2023-10-31T02:29:35.761Z,99760.87
2023-10-31T02:32:07.074Z,99760.87
2023-10-31T02:34:37.036Z,99769.88
2023-10-31T02:37:07.018Z,99759.63
2023-10-31T02:39:39.152Z,99766.38
2023-10-31T02:42:11.371Z,99766.61
2023-10-31T02:44:41.213Z,99766.67
2023-10-31T02:47:11.157Z,99767.19
2023-10-31T02:49:41.104Z,99765.55
2023-10-31T02:52:11.789Z,99764.41
2023-10-31T02:54:41.387Z,99763.98
2023-10-31T02:57:12.127Z,99778.04
2023-10-31T02:59:41.981Z,99778.04
2023-10-31T03:02:12.580Z,99784.66
2023-10-31T03:04:42.759Z,99779.99
2023-10-31T03:07:12.709Z,99779.84
2023-10-31T03:09:42.628Z,99784.07
2023-10-31T03:12:12.274Z,99777.36
2023-10-31T03:14:42.756Z,99783.45
2023-10-31T03:17:12.654Z,99788.38
2023-10-31T03:19:42.838Z,99790.04
2023-10-31T03:22:12.442Z,99786.13
2023-10-31T03:24:42.294Z,99786.55
2023-10-31T03:27:12.228Z,99790.67
2023-10-31T03:29:42.084Z,99799.57
2023-10-31T03:32:11.742Z,99802.66
2023-10-31T03:34:41.967Z,99801.16
2023-10-31T03:37:12.747Z,99804.91
2023-10-31T03:39:42.561Z,99800.32
2023-10-31T03:42:12.519Z,99810.61
2023-10-31T03:44:42.056Z,99819.28
2023-10-31T03:47:11.921Z,99829.23
2023-10-31T03:49:44.843Z,99834.75
2023-10-31T03:52:15.052Z,99836.23
2023-10-31T03:54:45.864Z,99833.72
2023-10-31T03:57:16.155Z,99839.72
2023-10-31T03:59:45.996Z,99849.72
2023-10-31T04:02:15.938Z,99844.08
2023-10-31T04:04:45.799Z,99850.84
2023-10-31T04:07:16.133Z,99855.09
2023-10-31T04:09:45.991Z,99856.26
2023-10-31T04:12:15.603Z,99858.55
2023-10-31T04:14:45.526Z,99863.98
2023-10-31T04:17:15.501Z,99874.62
2023-10-31T04:19:45.422Z,99874.62
2023-10-31T04:22:15.269Z,99877.31
2023-10-31T04:24:45.090Z,99877.47
2023-10-31T04:27:14.952Z,99881.39
2023-10-31T04:29:44.860Z,99885.91
2023-10-31T04:32:14.679Z,99887.07
2023-10-31T04:34:44.757Z,99882.84
2023-10-31T04:37:14.824Z,99886.67
2023-10-31T04:39:44.754Z,99888.63
2023-10-31T04:42:14.684Z,99886.19
2023-10-31T04:44:44.522Z,99886.19
2023-10-31T04:47:14.611Z,99897.02
2023-10-31T04:49:44.553Z,99901.27
2023-10-31T04:52:15.749Z,99902.73
2023-10-31T04:54:45.614Z,99907.42
2023-10-31T04:57:15.457Z,99904.72
2023-10-31T04:59:45.619Z,99914.64
2023-10-31T05:02:15.165Z,99916.23
2023-10-31T05:04:45.584Z,99924.00
2023-10-31T05:07:15.507Z,99929.41
2023-10-31T05:09:47.133Z,99935.28
2023-10-31T05:12:17.019Z,99938.07
2023-10-31T05:14:46.868Z,99938.07
2023-10-31T05:17:16.826Z,99944.72
2023-10-31T05:19:46.824Z,99943.50
2023-10-31T05:22:16.687Z,99939.80
2023-10-31T05:24:46.523Z,99939.28
2023-10-31T05:27:16.822Z,99938.48
2023-10-31T05:29:46.736Z,99944.39
2023-10-31T05:32:16.416Z,99943.80
2023-10-31T05:34:46.591Z,99937.03
2023-10-31T05:37:16.444Z,99947.08
2023-10-31T05:39:46.281Z,99947.51
2023-10-31T05:42:16.135Z,99948.78
2023-10-31T05:44:46.963Z,99961.56
2023-10-31T05:47:17.044Z,99966.84
2023-10-31T05:49:46.966Z,99966.46
2023-10-31T05:52:16.873Z,99970.89
2023-10-31T05:54:46.777Z,99971.09
2023-10-31T05:57:16.945Z,99975.41
2023-10-31T05:59:46.766Z,99984.11
2023-10-31T06:02:17.069Z,99986.40
2023-10-31T06:04:47.267Z,99982.61
2023-10-31T06:07:17.272Z,99988.77
2023-10-31T06:09:47.498Z,99994.27
2023-10-31T06:12:17.406Z,99994.27
2023-10-31T06:14:47.336Z,100002.22
2023-10-31T06:17:17.139Z,99998.30
2023-10-31T06:19:48.567Z,100017.69
2023-10-31T06:22:18.458Z,100011.38
2023-10-31T06:24:48.335Z,100010.89
2023-10-31T06:27:18.173Z,100025.17
2023-10-31T06:30:00.370Z,100029.44
2023-10-31T06:32:19.571Z,100032.33
2023-10-31T06:34:49.604Z,100039.30
2023-10-31T06:37:19.491Z,100045.22
2023-10-31T06:39:49.378Z,100045.98
2023-10-31T06:42:19.093Z,100045.98
2023-10-31T06:44:49.277Z,100045.76
2023-10-31T06:47:19.331Z,100048.25
2023-10-31T06:49:49.306Z,100049.89
2023-10-31T06:52:19.182Z,100046.73
2023-10-31T06:54:49.120Z,100050.52
2023-10-31T06:57:18.992Z,100047.19
2023-10-31T06:59:48.975Z,100051.77
2023-10-31T07:02:18.846Z,100046.99
2023-10-31T07:04:48.870Z,100046.99
2023-10-31T07:07:18.444Z,100053.72
2023-10-31T07:09:48.296Z,100053.38
2023-10-31T07:12:17.982Z,100050.94
2023-10-31T07:14:47.819Z,100056.50
2023-10-31T07:17:17.719Z,100056.84
2023-10-31T07:19:47.814Z,100057.84
2023-10-31T07:22:17.816Z,100057.02
2023-10-31T07:24:47.664Z,100060.58
2023-10-31T07:27:17.514Z,100055.58
2023-10-31T07:29:49.926Z,100056.22
2023-10-31T07:32:19.656Z,100058.95
2023-10-31T07:34:49.666Z,100063.79
2023-10-31T07:37:19.530Z,100073.30
2023-10-31T07:39:49.753Z,100072.67
2023-10-31T07:42:19.621Z,100076.31
2023-10-31T07:44:50.738Z,100078.91
2023-10-31T07:47:20.676Z,100079.52
2023-10-31T07:49:50.865Z,100077.08
2023-10-31T07:52:20.437Z,100078.31
2023-10-31T07:54:50.366Z,100077.30
2023-10-31T07:57:20.554Z,100081.02
2023-10-31T07:59:50.382Z,100084.23
2023-10-31T08:02:20.241Z,100078.31
2023-10-31T08:04:50.141Z,100084.90
2023-10-31T08:07:20.060Z,100088.00
2023-10-31T08:09:49.901Z,100080.93
2023-10-31T08:12:19.486Z,100089.48
2023-10-31T08:14:49.312Z,100087.09
2023-10-31T08:17:19.753Z,100091.99
2023-10-31T08:19:49.733Z,100100.99
2023-10-31T08:22:19.696Z,100104.41
2023-10-31T08:24:49.552Z,100109.73
2023-10-31T08:27:19.410Z,100107.30
2023-10-31T08:29:49.338Z,100106.70
2023-10-31T08:32:19.246Z,100110.16
2023-10-31T08:34:49.245Z,100118.77
2023-10-31T08:37:19.216Z,100114.11
2023-10-31T08:39:49.056Z,100117.08
2023-10-31T08:42:18.939Z,100116.04
2023-10-31T08:44:48.804Z,100120.95
2023-10-31T08:47:19.637Z,100120.95
2023-10-31T08:49:49.670Z,100120.31
2023-10-31T08:52:19.343Z,100130.43
2023-10-31T08:54:49.176Z,100135.03
2023-10-31T08:57:19.039Z,100137.72
2023-10-31T08:59:48.911Z,100144.66
2023-10-31T09:02:18.837Z,100148.23
2023-10-31T09:04:48.753Z,100148.31
2023-10-31T09:07:18.692Z,100156.95
2023-10-31T09:09:48.554Z,100155.15
2023-10-31T09:12:18.136Z,100163.47
2023-10-31T09:14:47.999Z,100165.30
2023-10-31T09:17:18.361Z,100157.55
2023-10-31T09:19:48.224Z,100162.30
2023-10-31T09:22:18.113Z,100165.20
2023-10-31T09:24:48.020Z,100173.97
2023-10-31T09:27:17.879Z,100175.97
2023-10-31T09:29:47.812Z,100177.05
2023-10-31T09:32:18.378Z,100164.13
2023-10-31T09:34:48.218Z,100164.13
2023-10-31T09:37:18.177Z,100177.42
2023-10-31T09:39:47.800Z,100179.22
2023-10-31T09:42:17.653Z,100182.39
2023-10-31T09:44:47.593Z,100190.80
2023-10-31T09:47:18.611Z,100197.77
2023-10-31T09:49:48.977Z,100202.02
2023-10-31T09:52:20.911Z,100202.31
2023-10-31T09:54:53.190Z,100212.64
2023-10-31T09:57:23.062Z,100211.44
2023-10-31T09:59:54.640Z,100214.44
2023-10-31T10:02:24.806Z,100217.45
2023-10-31T10:04:55.194Z,100214.23
2023-10-31T10:07:25.699Z,100221.94
2023-10-31T10:09:57.381Z,100229.82
2023-10-31T10:12:28.577Z,100231.36
2023-10-31T10:14:59.828Z,100243.42
2023-10-31T10:17:30.070Z,100243.33
2023-10-31T10:20:12.154Z,100244.99
2023-10-31T10:22:46.422Z,100249.04
2023-10-31T10:25:18.480Z,100257.25
2023-10-31T10:27:49.320Z,100260.91
2023-10-31T10:30:19.470Z,100264.52
2023-10-31T10:32:54.575Z,100264.83
2023-10-31T10:35:24.781Z,100267.53
2023-10-31T10:37:56.741Z,100272.75
2023-10-31T10:40:28.377Z,100275.42
2023-10-31T10:43:02.724Z,100274.73
2023-10-31T10:45:32.865Z,100283.36
2023-10-31T10:48:06.059Z,100282.97
2023-10-31T10:50:40.259Z,100285.77
2023-10-31T10:53:29.792Z,100288.51
2023-10-31T10:56:05.481Z,100283.93
2023-10-31T10:58:47.181Z,100289.88
2023-10-31T11:01:19.173Z,100289.58
2023-10-31T11:03:49.552Z,100292.25
2023-10-31T11:06:20.845Z,100307.65
2023-10-31T11:08:53.258Z,100293.84
2023-10-31T11:11:24.415Z,100292.92
2023-10-31T11:13:55.078Z,100293.98
2023-10-31T11:16:39.609Z,100302.67
2023-10-31T11:19:11.469Z,100306.83
2023-10-31T11:22:02.325Z,100301.59
2023-10-31T11:24:34.835Z,100297.00
2023-10-31T11:27:07.321Z,100306.94
2023-10-31T11:29:38.915Z,100317.31
2023-10-31T11:32:14.225Z,100317.31
2023-10-31T11:34:44.720Z,100317.63
2023-10-31T11:37:37.778Z,100318.70
2023-10-31T11:40:21.575Z,100321.44
2023-10-31T11:42:55.088Z,100319.39
2023-10-31T11:45:29.857Z,100326.45
2023-10-31T11:48:00.116Z,100333.52
2023-10-31T11:50:30.335Z,100335.77
2023-10-31T11:53:07.505Z,100335.77
2023-10-31T11:55:39.175Z,100335.39
2023-10-31T11:58:27.816Z,100332.73
2023-10-31T12:01:05.988Z,100333.70
2023-10-31T12:03:43.933Z,100337.62
2023-10-31T12:06:16.544Z,100341.22
2023-10-31T12:08:48.470Z,100340.71
2023-10-31T12:11:23.929Z,100340.71
2023-10-31T12:14:01.198Z,100350.31
2023-10-31T12:16:33.090Z,100342.22
2023-10-31T12:19:07.556Z,100336.69
2023-10-31T12:21:47.422Z,100345.83
2023-10-31T12:24:19.105Z,100345.16
2023-10-31T12:26:49.650Z,100341.84
2023-10-31T12:29:21.111Z,100345.53
2023-10-31T12:31:56.060Z,100342.84
2023-10-31T12:34:27.135Z,100345.87
2023-10-31T12:36:59.576Z,100347.25
2023-10-31T12:39:30.846Z,100352.59
2023-10-31T12:42:01.218Z,100347.98
2023-10-31T12:44:31.173Z,100349.45
2023-10-31T12:47:01.288Z,100351.89
2023-10-31T12:49:31.169Z,100352.27
2023-10-31T12:52:05.567Z,100351.40
2023-10-31T12:54:38.052Z,100350.86
2023-10-31T12:57:09.628Z,100356.23
2023-10-31T12:59:40.783Z,100357.88
2023-10-31T13:02:12.132Z,100360.71
2023-10-31T13:04:42.434Z,100363.13
2023-10-31T13:07:12.277Z,100361.30
2023-10-31T13:09:43.637Z,100358.78
2023-10-31T13:12:13.701Z,100357.24
2023-10-31T13:14:43.889Z,100358.59
2023-10-31T13:17:14.042Z,100357.02
2023-10-31T13:19:44.192Z,100361.42
2023-10-31T13:22:14.064Z,100363.67
2023-10-31T13:24:44.286Z,100363.63
2023-10-31T13:27:15.940Z,100366.65
2023-10-31T13:29:46.965Z,100361.50
2023-10-31T13:32:17.580Z,100358.70
2023-10-31T13:34:47.793Z,100356.97
2023-10-31T13:37:17.696Z,100365.33
2023-10-31T13:39:47.996Z,100367.34
2023-10-31T13:42:17.940Z,100362.77
2023-10-31T13:44:49.159Z,100361.58
2023-10-31T13:47:19.090Z,100363.03
2023-10-31T13:49:49.891Z,100365.03
2023-10-31T13:52:19.743Z,100367.09
2023-10-31T13:54:49.886Z,100370.77
2023-10-31T13:57:19.753Z,100374.97
2023-10-31T13:59:52.154Z,100372.23
2023-10-31T14:02:22.213Z,100375.40
2023-10-31T14:04:52.599Z,100373.72
2023-10-31T14:07:25.697Z,100374.19
2023-10-31T14:09:57.480Z,100381.67
2023-10-31T14:12:27.605Z,100380.51
2023-10-31T14:14:57.748Z,100384.34
2023-10-31T14:17:27.658Z,100384.99
2023-10-31T14:19:57.820Z,100384.47
2023-10-31T14:22:27.700Z,100391.39
2023-10-31T14:24:57.945Z,100391.39
2023-10-31T14:27:27.752Z,100396.44
2023-10-31T14:29:58.085Z,100398.12
2023-10-31T14:32:28.009Z,100391.60
2023-10-31T14:34:58.203Z,100397.22
2023-10-31T14:37:29.685Z,100399.84
2023-10-31T14:40:00.197Z,100396.99
2023-10-31T14:42:30.340Z,100399.80
2023-10-31T14:45:01.747Z,100397.81
2023-10-31T14:47:31.302Z,100397.68
2023-10-31T14:50:01.595Z,100403.84
2023-10-31T14:52:31.787Z,100400.88
2023-10-31T14:55:01.906Z,100400.43
2023-10-31T14:57:32.056Z,100403.09
2023-10-31T15:00:02.297Z,100398.09
2023-10-31T15:02:32.283Z,100406.70
2023-10-31T15:05:04.729Z,100405.63
2023-10-31T15:07:34.843Z,100404.91
2023-10-31T15:10:05.086Z,100410.66
2023-10-31T15:12:35.215Z,100416.36
2023-10-31T15:15:07.889Z,100416.87
2023-10-31T15:17:38.128Z,100419.56
2023-10-31T15:20:11.108Z,100419.46
2023-10-31T15:22:43.326Z,100419.17
2023-10-31T15:25:13.414Z,100418.80
2023-10-31T15:27:44.644Z,100414.22
2023-10-31T15:30:15.938Z,100420.63
2023-10-31T15:32:46.018Z,100423.98
2023-10-31T15:35:15.702Z,100425.47
2023-10-31T15:37:45.950Z,100424.50
2023-10-31T15:40:16.083Z,100432.80
2023-10-31T15:42:46.226Z,100430.00
2023-10-31T15:45:16.497Z,100437.03
2023-10-31T15:47:46.672Z,100439.30
2023-10-31T15:50:16.792Z,100443.85
2023-10-31T15:52:47.787Z,100442.88
2023-10-31T15:55:17.512Z,100453.08
2023-10-31T15:57:47.453Z,100444.19
2023-10-31T16:00:18.780Z,100440.37
2023-10-31T16:02:48.620Z,100444.13
2023-10-31T16:05:18.578Z,100450.42
2023-10-31T16:07:48.457Z,100446.91
2023-10-31T16:10:19.501Z,100446.91
2023-10-31T16:12:49.342Z,100447.98
2023-10-31T16:15:19.411Z,100458.31
2023-10-31T16:17:49.087Z,100450.61
2023-10-31T16:20:19.560Z,100453.22
2023-10-31T16:22:49.129Z,100466.66
2023-10-31T16:25:19.233Z,100465.23
2023-10-31T16:27:49.413Z,100463.64
2023-10-31T16:30:20.713Z,100463.64
2023-10-31T16:32:50.809Z,100466.15
2023-10-31T16:35:20.767Z,100470.33
2023-10-31T16:37:52.282Z,100478.94
2023-10-31T16:40:22.158Z,100473.52
2023-10-31T16:42:52.628Z,100469.72
2023-10-31T16:45:22.179Z,100467.45
2023-10-31T16:47:52.726Z,100480.14
2023-10-31T16:50:22.658Z,100479.47
2023-10-31T16:52:52.526Z,100480.67
2023-10-31T16:55:22.154Z,100479.23
2023-10-31T16:57:51.985Z,100481.37
2023-10-31T17:00:21.827Z,100492.16
2023-10-31T17:02:51.880Z,100485.60
2023-10-31T17:05:21.566Z,100487.52
2023-10-31T17:07:53.087Z,100487.52
2023-10-31T17:10:22.947Z,100489.80
2023-10-31T17:12:52.969Z,100496.78
2023-10-31T17:15:22.976Z,100496.33
2023-10-31T17:17:52.894Z,100501.37
2023-10-31T17:20:23.820Z,100503.27
2023-10-31T17:22:53.643Z,100512.62
2023-10-31T17:25:23.195Z,100514.12
2023-10-31T17:27:53.080Z,100520.06
2023-10-31T17:30:23.012Z,100521.89
2023-10-31T17:32:54.076Z,100521.89
2023-10-31T17:35:24.000Z,100523.09
2023-10-31T17:37:53.610Z,100524.87
2023-10-31T17:40:23.698Z,100530.23
2023-10-31T17:42:53.931Z,100528.04
2023-10-31T17:45:25.390Z,100530.94
2023-10-31T17:47:56.966Z,100531.78
2023-10-31T17:50:26.890Z,100533.68
2023-10-31T17:52:56.785Z,100532.15
2023-10-31T17:55:26.721Z,100536.19
2023-10-31T17:57:56.852Z,100533.75
2023-10-31T18:00:26.686Z,100536.12
2023-10-31T18:02:58.633Z,100535.19
2023-10-31T18:05:30.589Z,100541.16
2023-10-31T18:08:00.718Z,100543.73
2023-10-31T18:10:30.568Z,100542.15
2023-10-31T18:13:03.689Z,100538.94
2023-10-31T18:15:32.607Z,100536.58
2023-10-31T18:18:02.835Z,100540.67
2023-10-31T18:20:33.000Z,100535.43
2023-10-31T18:23:03.147Z,100536.81
2023-10-31T18:25:32.969Z,100535.44
2023-10-31T18:28:03.597Z,100533.08
2023-10-31T18:30:33.319Z,100528.57
2023-10-31T18:33:04.794Z,100522.96
2023-10-31T18:35:34.677Z,100523.16
2023-10-31T18:38:04.887Z,100527.73
2023-10-31T18:40:34.752Z,100524.70
2023-10-31T18:43:04.955Z,100525.37
2023-10-31T18:45:34.822Z,100519.59
2023-10-31T18:48:05.208Z,100521.97
2023-10-31T18:50:35.419Z,100511.37
2023-10-31T18:53:05.561Z,100507.67
2023-10-31T18:55:35.491Z,100501.27
2023-10-31T18:58:05.638Z,100510.78
2023-10-31T19:00:35.577Z,100506.14
2023-10-31T19:03:05.819Z,100502.64
2023-10-31T19:05:36.529Z,100508.34
2023-10-31T19:08:06.780Z,100505.22
2023-10-31T19:10:37.359Z,100498.98
2023-10-31T19:13:07.522Z,100501.95
2023-10-31T19:15:37.956Z,100501.43
2023-10-31T19:18:08.865Z,100501.43
2023-10-31T19:20:38.741Z,100502.44
2023-10-31T19:23:10.161Z,100499.39
2023-10-31T19:25:40.297Z,100499.89
2023-10-31T19:28:10.443Z,100503.64
2023-10-31T19:30:41.004Z,100509.64
2023-10-31T19:33:11.356Z,100502.13
2023-10-31T19:35:41.241Z,100502.34
2023-10-31T19:38:11.114Z,100505.70
2023-10-31T19:40:40.901Z,100502.26
2023-10-31T19:43:10.935Z,100503.40
2023-10-31T19:45:42.418Z,100478.23
2023-10-31T19:48:12.613Z,100478.23
2023-10-31T19:50:43.388Z,100500.06
2023-10-31T19:53:13.293Z,100501.27
2023-10-31T19:55:43.533Z,100501.27
2023-10-31T19:58:15.531Z,100494.89
2023-10-31T20:00:45.378Z,100491.55
2023-10-31T20:03:15.357Z,100491.85
2023-10-31T20:05:45.368Z,100490.78
2023-10-31T20:08:17.956Z,100495.42
2023-10-31T20:10:48.091Z,100482.94
2023-10-31T20:13:18.322Z,100477.87
2023-10-31T20:15:50.104Z,100480.14
2023-10-31T20:18:21.961Z,100475.25
2023-10-31T20:20:51.879Z,100474.20
2023-10-31T20:23:21.628Z,100475.96
2023-10-31T20:25:52.643Z,100472.23
2023-10-31T20:28:23.299Z,100481.20
2023-10-31T20:30:53.549Z,100478.10
2023-10-31T20:33:23.801Z,100476.55
2023-10-31T20:35:53.821Z,100475.25
2023-10-31T20:38:24.052Z,100476.09
2023-10-31T20:40:53.936Z,100475.50
2023-10-31T20:43:23.802Z,100478.47
2023-10-31T20:45:53.679Z,100476.43
2023-10-31T20:48:23.345Z,100476.43
2023-10-31T20:50:53.348Z,100483.05
2023-10-31T20:53:23.538Z,100484.55
2023-10-31T20:55:53.383Z,100485.24
2023-10-31T20:58:23.262Z,100486.91
2023-10-31T21:00:53.173Z,100490.33
2023-10-31T21:03:23.559Z,100488.20
2023-10-31T21:05:55.404Z,100482.20
2023-10-31T21:08:24.970Z,100482.20
2023-10-31T21:10:55.201Z,100484.45
2023-10-31T21:13:25.062Z,100484.54
2023-10-31T21:15:55.389Z,100492.31
2023-10-31T21:18:25.367Z,100492.31
2023-10-31T21:20:55.333Z,100486.75
2023-10-31T21:23:25.448Z,100485.19
2023-10-31T21:25:57.265Z,100486.14
2023-10-31T21:28:28.342Z,100490.34
2023-10-31T21:30:58.207Z,100484.16
2023-10-31T21:33:28.566Z,100492.75
2023-10-31T21:35:58.432Z,100498.77
2023-10-31T21:38:28.092Z,100499.83
2023-10-31T21:40:57.960Z,100495.79
2023-10-31T21:43:27.806Z,100495.42
2023-10-31T21:45:57.671Z,100487.91
2023-10-31T21:48:27.910Z,100487.21
2023-10-31T21:50:59.589Z,100487.21
2023-10-31T21:53:29.331Z,100489.42
2023-10-31T21:55:59.248Z,100493.16
2023-10-31T21:58:29.161Z,100493.52
2023-10-31T22:00:59.965Z,100491.15
2023-10-31T22:03:29.959Z,100495.66
2023-10-31T22:06:00.192Z,100490.00
2023-10-31T22:08:30.378Z,100488.41
2023-10-31T22:11:00.325Z,100484.64
2023-10-31T22:13:30.173Z,100477.80
2023-10-31T22:16:03.230Z,100475.36
2023-10-31T22:18:33.119Z,100486.55
2023-10-31T22:21:02.695Z,100481.37
2023-10-31T22:23:32.948Z,100481.81
2023-10-31T22:26:02.864Z,100487.38
2023-10-31T22:28:32.572Z,100481.50
2023-10-31T22:31:03.102Z,100487.58
2023-10-31T22:33:32.926Z,100487.58
2023-10-31T22:36:03.839Z,100483.94
2023-10-31T22:38:33.512Z,100490.00
2023-10-31T22:41:03.477Z,100488.94
2023-10-31T22:43:34.012Z,100495.06
2023-10-31T22:48:48.086Z,100484.84
2023-10-31T22:51:18.297Z,100478.84
2023-10-31T22:53:48.136Z,100490.48
2023-10-31T22:56:17.724Z,100491.39
2023-10-31T22:58:47.603Z,100488.11
2023-10-31T23:01:18.500Z,100486.08
2023-10-31T23:03:48.448Z,100486.02
2023-10-31T23:06:18.389Z,100487.21
2023-10-31T23:08:48.304Z,100488.34
2023-10-31T23:11:18.267Z,100489.95
2023-10-31T23:13:48.202Z,100493.52
2023-10-31T23:16:18.080Z,100496.73
2023-10-31T23:18:47.913Z,100498.77
2023-10-31T23:21:18.023Z,100490.55
2023-10-31T23:23:48.164Z,100495.95
2023-10-31T23:26:18.169Z,100488.34
2023-10-31T23:28:47.696Z,100491.16
2023-10-31T23:31:17.585Z,100486.01
2023-10-31T23:33:47.637Z,100489.72
2023-10-31T23:36:17.378Z,100495.20
2023-10-31T23:38:46.975Z,100494.13
2023-10-31T23:41:17.480Z,100494.36
2023-10-31T23:43:47.359Z,100492.14
2023-10-31T23:46:18.394Z,100487.83
2023-10-31T23:48:48.351Z,100486.14
2023-10-31T23:51:25.010Z,100479.52
2023-10-31T23:53:53.912Z,100479.52
2023-10-31T23:56:23.465Z,100485.70
2023-10-31T23:58:53.660Z,100476.95
